Data for 08/25/2009

Time Sea-Level Adjusted Pressure Absolute Pressure Temperature Relative Humidity Dew Point   
(mb) (inHg) (mb) (inHg) (C) (F) (%) (C) (F)
00:05 1021 30.15 850 25.1 14.4 57.8 53 5.1 41.2
00:10 1021 30.15 850 25.1 14.2 57.6 54 5.1 41.1
00:15 1021 30.15 850 25.1 14.3 57.8 52 4.8 40.6
00:20 1021 30.15 850 25.1 14.6 58.3 52 4.8 40.7
00:25 1021 30.15 850 25.1 14.6 58.3 52 4.9 40.9
00:30 1021 30.15 850 25.1 14.3 57.8 53 5 41.1
00:35 1021 30.15 850 25.1 14.3 57.7 52 4.7 40.4
00:40 1021 30.15 850 25.1 14.3 57.7 52 4.8 40.6
00:45 1021 30.15 850 25.1 14.4 58 51 4.4 40
00:50 1021 30.15 850 25.1 14.6 58.3 51 4.6 40.3
00:55 1021 30.15 850 25.1 14.6 58.2 52 4.9 40.8
01:00 1021 30.15 850 25.1 14.4 57.9 52 4.6 40.4
01:05 1021 30.15 850 25.1 14.2 57.6 53 5 40.9
01:10 1021 30.15 850 25.1 13.9 57 54 4.9 40.8
01:15 1021 30.15 850 25.1 13.7 56.7 54 4.8 40.6
01:20 1021 30.15 850 25.1 13.7 56.6 54 4.7 40.4
01:25 1021 30.15 850 25.1 13.5 56.4 54 4.4 40
01:30 1021 30.15 850 25.1 13.7 56.6 53 4.3 39.7
01:35 1021 30.15 850 25.1 14 57.2 53 4.5 40.2
01:40 1021 30.15 850 25.1 13.9 57 53 4.7 40.4
01:45 1021 30.15 850 25.1 13.8 56.8 54 4.7 40.4
01:50 1021 30.15 850 25.1 13.8 56.8 54 4.7 40.4
01:55 1021 30.15 850 25.1 13.7 56.6 54 4.7 40.5
02:00 1021 30.15 850 25.1 13.3 56 56 4.7 40.4
02:05 1021 30.15 850 25.1 13.2 55.7 54 4.2 39.5
02:10 1021 30.15 850 25.1 13.3 55.9 54 4.3 39.8
02:15 1021 30.15 850 25.1 13.2 55.7 56 4.5 40.1
02:20 1021 30.15 850 25.1 13 55.5 57 4.9 40.7
02:25 1021 30.15 850 25.1 12.8 55.1 59 5 41
02:30 1021 30.15 850 25.1 12.6 54.8 59 4.9 40.8
02:35 1021 30.15 850 25.1 12.6 54.6 60 5 40.9
02:40 1021 30.15 850 25.1 12.3 54.2 59 4.7 40.5
02:45 1021 30.15 850 25.1 12.3 54.1 58 4.4 39.9
02:50 1021 30.15 850 25.1 12.2 54 58 4.2 39.6
02:55 1021 30.15 850 25.1 12.1 53.8 59 4.4 39.9
03:00 1021 30.15 850 25.1 12.1 53.7 60 4.6 40.2
03:05 1021 30.15 850 25.1 12 53.6 62 4.9 40.8
03:10 1021 30.15 850 25.1 11.9 53.3 61 4.7 40.5
03:15 1021 30.15 850 25.1 11.8 53.2 61 4.6 40.3
03:20 1021 30.15 850 25.1 11.7 53 62 4.7 40.4
03:25 1021 30.15 851 25.13 11.7 53 62 4.7 40.4
03:30 1021 30.15 850 25.1 11.8 53.2 61 4.5 40.2
03:35 1021 30.15 851 25.13 11.9 53.4 61 4.7 40.4
03:40 1021 30.15 851 25.13 11.8 53.3 62 4.8 40.6
03:45 1021 30.15 851 25.13 11.9 53.3 61 4.7 40.4
03:50 1021 30.15 851 25.13 11.9 53.4 62 4.9 40.9
03:55 1021 30.15 851 25.13 11.7 53 64 5 41
04:00 1021 30.15 851 25.13 11.7 53 62 4.6 40.3
04:05 1021 30.15 851 25.13 12.4 54.3 58 4.5 40.1
04:10 1021 30.15 851 25.13 12.8 55.1 59 5 40.9
04:15 1021 30.15 851 25.13 12.7 54.8 59 5 40.9
04:20 1021 30.15 851 25.13 12.6 54.7 60 5 41
04:25 1021 30.15 851 25.13 12.5 54.4 61 5.2 41.3
04:30 1021 30.15 851 25.13 12.5 54.4 61 5.1 41.2
04:35 1021 30.15 851 25.13 12.5 54.6 61 5.3 41.5
04:40 1021 30.15 851 25.13 12.3 54.1 61 5.1 41.2
04:45 1021 30.15 851 25.13 12.1 53.7 62 5 41
04:50 1021 30.15 851 25.13 12 53.6 62 5.1 41.2
04:55 1021 30.15 851 25.13 12 53.6 62 5 40.9
05:00 1021 30.15 851 25.13 12 53.6 63 5.1 41.2
05:05 1021 30.15 851 25.13 12 53.5 62 5 41.1
05:10 1021 30.15 851 25.13 12 53.5 63 5.1 41.2
05:15 1021 30.15 851 25.13 11.9 53.4 63 5.1 41.2
05:20 1021 30.15 851 25.13 11.9 53.4 63 5.1 41.1
05:25 1021 30.15 851 25.13 11.9 53.4 63 5.1 41.2
05:30 1021 30.15 851 25.13 11.9 53.5 62 5 41
05:35 1021 30.15 851 25.13 12.1 53.8 62 5.1 41.2
05:40 1021 30.15 851 25.13 12.1 53.8 63 5.4 41.8
05:45 1021 30.15 851 25.13 11.7 53.1 64 5.1 41.2
05:50 1021 30.15 851 25.13 11.6 52.9 64 5 41
05:55 1021 30.15 851 25.13 11.7 53.1 63 4.9 40.9
06:00 1021 30.15 851 25.13 12 53.6 62 5 41.1
06:05 1021 30.15 851 25.13 12 53.7 62 5.1 41.1
06:10 1021 30.15 851 25.13 12.1 53.8 63 5.3 41.5
06:15 1021 30.15 851 25.13 12 53.6 63 5.3 41.5
06:20 1021 30.15 851 25.13 11.9 53.4 64 5.3 41.6
06:25 1021 30.15 851 25.13 11.8 53.2 64 5.3 41.6
06:30 1021 30.15 851 25.13 11.8 53.2 65 5.4 41.7
06:35 1021 30.15 851 25.13 11.8 53.2 64 5.3 41.6
06:40 1021 30.15 851 25.13 11.9 53.4 65 5.5 41.9
06:45 1021 30.15 851 25.13 11.9 53.5 64 5.3 41.6
06:50 1021 30.15 851 25.13 12.2 53.9 63 5.4 41.6
06:55 1021 30.15 851 25.13 12.1 53.8 64 5.5 41.9
07:00 1021 30.15 851 25.13 11.8 53.2 65 5.4 41.7
07:05 1021 30.15 851 25.13 11.9 53.5 64 5.4 41.6
07:10 1021 30.15 851 25.13 12.1 53.7 64 5.6 42
07:15 1021 30.15 851 25.13 12 53.6 64 5.5 41.8
07:20 1021 30.15 850 25.1 12.2 53.9 64 5.5 42
07:25 1021 30.15 850 25.1 12.6 54.6 62 5.5 41.9
07:30 1021 30.15 850 25.1 13 55.5 61 5.7 42.3
07:35 1021 30.15 850 25.1 13.2 55.8 60 5.8 42.4
07:40 1021 30.15 850 25.1 13.3 56 60 5.8 42.4
07:45 1021 30.15 850 25.1 13.6 56.4 59 5.8 42.4
07:50 1021 30.15 850 25.1 13.8 56.9 59 5.9 42.6
07:55 1021 30.15 850 25.1 14.2 57.6 57 5.8 42.5
08:00 1021 30.15 850 25.1 14.7 58.4 56 6 42.8
08:05 1021 30.15 850 25.1 15.1 59.2 54 6 42.7
08:10 1021 30.15 850 25.1 15.4 59.8 53 6 42.8
08:15 1021 30.15 851 25.13 15.7 60.2 52 6 42.8
08:20 1021 30.15 851 25.13 16 60.8 52 6.2 43.2
08:25 1021 30.15 851 25.13 16.4 61.4 51 6.3 43.4
08:30 1021 30.15 851 25.13 16.7 62 50 6.2 43.2
08:35 1022 30.18 851 25.13 16.7 62 47 5.4 41.8
08:40 1022 30.18 851 25.13 17.1 62.8 48 6 42.8
08:45 1022 30.18 851 25.13 17.3 63.2 48 6.4 43.4
08:50 1022 30.18 851 25.13 18 64.5 47 6.8 44.2
08:55 1022 30.18 851 25.13 18.3 64.9 49 7.6 45.7
09:00 1022 30.18 851 25.13 17.1 62.9 49 6.3 43.4
09:05 1022 30.18 851 25.13 16.7 62.1 49 6 42.8
09:10 1022 30.18 851 25.13 16.2 61.2 51 6.1 42.9
09:15 1022 30.18 851 25.13 16.3 61.3 49 5.6 42.1
09:20 1022 30.18 851 25.13 16.2 61.1 49 5.7 42.2
09:25 1022 30.18 851 25.13 16.2 61.1 49 5.6 42
09:30 1022 30.18 851 25.13 15.8 60.4 51 5.7 42.3
09:35 1022 30.18 851 25.13 16.2 61.1 50 5.8 42.4
09:40 1022 30.18 851 25.13 16.7 62 47 5.3 41.6
09:45 1022 30.18 851 25.13 17 62.5 46 5.5 41.9
09:50 1022 30.18 851 25.13 18 64.4 44 5.8 42.4
09:55 1022 30.18 851 25.13 17.8 64.1 43 5.1 41.1
10:00 1022 30.18 851 25.13 18.9 66 40 5.1 41.2
10:05 1022 30.18 851 25.13 19.9 67.8 37 5.1 41.1
10:10 1022 30.18 851 25.13 20.1 68.1 38 5.6 42.1
10:15 1022 30.18 851 25.13 19.5 67.1 41 6.2 43.2
10:20 1022 30.18 851 25.13 19.3 66.8 40 5.5 41.8
10:25 1022 30.18 851 25.13 20 67.9 39 5.6 42.1
10:30 1022 30.18 851 25.13 20.7 69.2 36 5.3 41.6
10:35 1022 30.18 851 25.13 20.9 69.7 38 6.1 43
10:40 1022 30.18 851 25.13 20.7 69.3 37 5.7 42.3
10:45 1022 30.18 851 25.13 21.4 70.4 36 6 42.8
10:50 1022 30.18 851 25.13 21.6 71 37 6.6 43.8
10:55 1022 30.18 851 25.13 22.6 72.7 34 6.2 43.2
11:00 1022 30.18 851 25.13 23.1 73.7 33 6.4 43.5
11:05 1022 30.18 851 25.13 22.4 72.4 35 6.5 43.7
11:10 1022 30.18 851 25.13 22.4 72.3 34 6 42.8
11:15 1022 30.18 851 25.13 22.6 72.7 36 6.8 44.3
11:20 1022 30.18 851 25.13 23.4 74 33 6.4 43.5
11:25 1022 30.18 851 25.13 23.2 73.7 35 7.2 44.9
11:30 1022 30.18 851 25.13 21.9 71.4 37 6.6 43.9
11:35 1022 30.18 851 25.13 22.6 72.7 35 6.4 43.6
11:40 1022 30.18 851 25.13 22.3 72.2 35 6.3 43.3
11:45 1022 30.18 851 25.13 22.5 72.5 35 6.3 43.4
11:50 1022 30.18 851 25.13 22.7 72.9 34 6.2 43.1
11:55 1022 30.18 851 25.13 23.9 75.1 33 6.7 44.1
12:00 1022 30.18 851 25.13 23.7 74.6 32 6.2 43.1
12:05 1022 30.18 851 25.13 23.7 74.7 32 6.2 43.2
12:10 1022 30.18 851 25.13 23.7 74.7 32 6.3 43.3
12:15 1022 30.18 851 25.13 23.9 74.9 32 6.2 43.2
12:20 1021 30.15 851 25.13 24.2 75.6 29 5.3 41.6
12:25 1021 30.15 851 25.13 24.8 76.7 28 5.4 41.7
12:30 1021 30.15 851 25.13 24.9 76.8 28 5.3 41.6
12:35 1021 30.15 851 25.13 26.1 78.9 26 5.3 41.5
12:40 1021 30.15 851 25.13 25.7 78.3 28 5.9 42.6
12:45 1021 30.15 851 25.13 25.9 78.6 26 5.3 41.5
12:50 1021 30.15 851 25.13 26.7 80.1 23 4.2 39.6
12:55 1021 30.15 850 25.1 26.9 80.3 24 5 41.1
13:00 1021 30.15 850 25.1 27 80.7 22 4.1 39.4
13:05 1021 30.15 850 25.1 27 80.6 22 3.9 39.1
13:10 1021 30.15 850 25.1 26.6 79.8 22 3.6 38.5
13:15 1021 30.15 850 25.1 26.9 80.4 20 2.6 36.6
13:20 1021 30.15 850 25.1 27.2 81 21 3 37.4
13:25 1021 30.15 850 25.1 27.8 82 21 4 39.2
13:30 1021 30.15 850 25.1 27.9 82.3 19 2.3 36.1
13:35 1021 30.15 850 25.1 27.4 81.3 20 2.4 36.3
13:40 1021 30.15 850 25.1 27.7 81.9 13 -3 26.7
13:45 1021 30.15 850 25.1 27.7 81.9 15 -0.9 30.4
13:50 1021 30.15 850 25.1 27.5 81.5 12 -3.8 25.1
13:55 1021 30.15 850 25.1 27.1 80.8 14 -2.1 28.2
14:00 1021 30.15 850 25.1 27.2 81 15 -1.4 29.5
14:05 1021 30.15 850 25.1 27.1 80.8 14 -2 28.4
14:10 1021 30.15 850 25.1 27.2 81 15 -1.4 29.5
14:15 1021 30.15 850 25.1 27.5 81.5 16 -0.5 31.1
14:20 1021 30.15 850 25.1 27.6 81.6 15 -0.9 30.4
14:25 1021 30.15 850 25.1 27.4 81.2 14 -1.7 28.9
14:30 1021 30.15 850 25.1 27.8 82.1 14 -2 28.4
14:35 1021 30.15 850 25.1 27.5 81.6 14 -2.2 28.1
14:40 1021 30.15 850 25.1 26.7 80 15 -1.9 28.6
14:45 1021 30.15 850 25.1 26.8 80.2 15 -1.5 29.4
14:50 1021 30.15 850 25.1 26.5 79.8 14 -2.8 27
14:55 1021 30.15 850 25.1 26.6 79.9 13 -3.9 24.9
15:00 1021 30.15 850 25.1 27 80.5 13 -3.3 26
15:05 1021 30.15 850 25.1 26.6 79.8 14 -2.6 27.3
15:10 1021 30.15 850 25.1 26.9 80.4 14 -2.5 27.6
15:15 1020 30.12 850 25.1 27.1 80.7 16 -0.7 30.7
15:20 1020 30.12 850 25.1 26.6 79.9 17 -0.3 31.4
15:25 1020 30.12 849 25.07 26.4 79.5 15 -2.1 28.2
15:30 1020 30.12 849 25.07 26.1 79 15 -2.2 28
15:35 1020 30.12 849 25.07 25.8 78.4 15 -2.2 28
15:40 1020 30.12 849 25.07 25.8 78.5 14 -3.1 26.4
15:45 1020 30.12 849 25.07 26.6 79.8 14 -2.6 27.3
15:50 1020 30.12 849 25.07 26.8 80.2 15 -1.6 29.1
15:55 1020 30.12 849 25.07 26.2 79.2 15 -2.4 27.7
16:00 1020 30.12 849 25.07 26.9 80.4 15 -2.1 28.2
16:05 1020 30.12 849 25.07 26.5 79.8 15 -2.2 28
16:10 1020 30.12 849 25.07 26.8 80.2 15 -1.7 29
16:15 1020 30.12 849 25.07 26.7 80.1 14 -2.3 27.9
16:20 1020 30.12 849 25.07 26.8 80.2 15 -1.5 29.4
16:25 1020 30.12 849 25.07 27.8 82 14 -1.5 29.3
16:30 1020 30.12 849 25.07 27.4 81.3 15 -1.3 29.7
16:35 1020 30.12 849 25.07 27.1 80.8 15 -1.1 30.1
16:40 1020 30.12 849 25.07 27.3 81.2 15 -1.6 29.2
16:45 1020 30.12 849 25.07 27.9 82.2 14 -1.8 28.7
16:50 1020 30.12 849 25.07 27.7 81.9 14 -1.8 28.7
16:55 1020 30.12 849 25.07 28.3 82.9 14 -1.4 29.5
17:00 1020 30.12 849 25.07 27.6 81.6 15 -0.8 30.6
17:05 1020 30.12 849 25.07 27.8 82 15 -1 30.1
17:10 1020 30.12 849 25.07 27.4 81.2 16 -0.8 30.6
17:15 1020 30.12 849 25.07 27.6 81.6 14 -1.8 28.7
17:20 1020 30.12 849 25.07 27.9 82.2 15 -1.2 29.9
17:25 1020 30.12 849 25.07 27.8 82.1 15 -1 30.3
17:30 1020 30.12 849 25.07 27.4 81.4 15 -1.6 29.1
17:35 1020 30.12 849 25.07 27.3 81.1 15 -1.1 30
17:40 1020 30.12 849 25.07 26.8 80.3 15 -2 28.5
17:45 1020 30.12 849 25.07 27.3 81.2 15 -1.2 29.8
17:50 1020 30.12 849 25.07 27.5 81.4 14 -2 28.3
17:55 1020 30.12 849 25.07 27.4 81.3 14 -1.9 28.6
18:00 1020 30.12 849 25.07 27.8 82.1 14 -2 28.3
18:05 1020 30.12 849 25.07 28.2 82.8 14 -1.1 30
18:10 1020 30.12 849 25.07 28.4 83.1 14 -1.4 29.4
18:15 1020 30.12 849 25.07 28.1 82.5 14 -1.4 29.5
18:20 1020 30.12 849 25.07 28.3 82.9 15 -0.7 30.8
18:25 1020 30.12 849 25.07 27.3 81.1 15 -1.1 30
18:30 1020 30.12 849 25.07 26.3 79.4 15 -2.4 27.7
18:35 1020 30.12 849 25.07 26 78.7 15 -2.5 27.4
18:40 1020 30.12 849 25.07 26.1 78.9 15 -2.2 28
18:45 1020 30.12 849 25.07 26.2 79.1 16 -1 30.2
18:50 1020 30.12 849 25.07 26.1 78.9 18 -0 32
18:55 1020 30.12 849 25.07 25.8 78.5 17 -0.7 30.8
19:00 1020 30.12 849 25.07 25.8 78.4 22 2.8 37.1
19:05 1020 30.12 849 25.07 25.8 78.4 20 1.2 34.2
19:10 1020 30.12 849 25.07 25.5 77.9 24 3.6 38.5
19:15 1019 30.09 849 25.07 25 77.1 26 4.7 40.4
19:20 1019 30.09 849 25.07 24.7 76.4 27 4.6 40.3
19:25 1020 30.12 849 25.07 24.5 76.1 29 5.6 42
19:30 1020 30.12 849 25.07 24.6 76.2 30 6.1 42.9
19:35 1020 30.12 849 25.07 24.4 75.8 32 6.7 44.1
19:40 1020 30.12 849 25.07 23.6 74.4 37 8.1 46.6
19:45 1020 30.12 849 25.07 22.7 72.9 35 6.8 44.2
19:50 1020 30.12 849 25.07 22.4 72.3 38 7.6 45.7
19:55 1020 30.12 849 25.07 22.2 72 37 7 44.6
20:00 1020 30.12 849 25.07 22 71.6 35 6.1 42.9
20:05 1020 30.12 849 25.07 21.8 71.2 39 7.4 45.3
20:10 1020 30.12 849 25.07 21.5 70.6 38 6.7 44.1
20:15 1020 30.12 849 25.07 21.1 70.1 36 5.8 42.5
20:20 1020 30.12 849 25.07 21 69.8 36 5.5 41.9
20:25 1020 30.12 849 25.07 21.4 70.5 32 4.4 39.8
20:30 1020 30.12 849 25.07 21.9 71.5 31 4.1 39.3
20:35 1020 30.12 849 25.07 21.9 71.5 32 4.8 40.6
20:40 1020 30.12 849 25.07 21.8 71.2 35 5.9 42.6
20:45 1020 30.12 849 25.07 21.6 70.9 33 5 41
20:50 1020 30.12 849 25.07 21.4 70.5 37 6.4 43.5
20:55 1020 30.12 849 25.07 20 68 40 6.3 43.4
21:00 1020 30.12 849 25.07 19.1 66.3 41 5.7 42.2
21:05 1020 30.12 849 25.07 18.7 65.6 40 5 41
21:10 1020 30.12 849 25.07 18.6 65.5 39 4.7 40.5
21:15 1020 30.12 849 25.07 18.8 65.8 37 4 39.2
21:20 1020 30.12 849 25.07 19.2 66.5 36 4 39.2
21:25 1020 30.12 850 25.1 19.1 66.4 36 3.9 39.1
21:30 1020 30.12 850 25.1 19.2 66.5 36 3.7 38.7
21:35 1020 30.12 850 25.1 19.2 66.6 35 3.4 38.1
21:40 1020 30.12 850 25.1 19.2 66.6 37 4.3 39.7
21:45 1020 30.12 850 25.1 19 66.2 36 3.7 38.6
21:50 1020 30.12 850 25.1 18.9 66 36 3.7 38.6
21:55 1020 30.12 850 25.1 18.8 65.8 36 3.6 38.4
22:00 1021 30.15 850 25.1 18.7 65.7 37 3.8 38.9
22:05 1021 30.15 850 25.1 18.6 65.5 36 3.4 38.1
22:10 1021 30.15 850 25.1 18.7 65.7 36 3.5 38.3
22:15 1021 30.15 850 25.1 18.8 65.9 36 3.6 38.4
22:20 1021 30.15 850 25.1 18.7 65.7 36 3.6 38.5
22:25 1021 30.15 850 25.1 18.7 65.6 36 3.5 38.3
22:30 1021 30.15 850 25.1 18.6 65.5 37 3.9 38.9
22:35 1021 30.15 850 25.1 18.4 65.2 39 4.4 39.8
22:40 1021 30.15 850 25.1 18.3 64.9 38 3.9 39.1
22:45 1021 30.15 850 25.1 18.4 65.1 38 4.1 39.4
22:50 1021 30.15 850 25.1 18.2 64.8 38 3.9 39
22:55 1021 30.15 850 25.1 18.2 64.8 38 3.8 38.8
23:00 1021 30.15 850 25.1 18.3 65 39 4.4 39.8
23:05 1021 30.15 850 25.1 18.1 64.6 39 4 39.1
23:10 1021 30.15 850 25.1 17.9 64.2 40 4.2 39.5
23:15 1021 30.15 850 25.1 17.7 63.8 41 4.3 39.7
23:20 1021 30.15 850 25.1 17.6 63.6 41 4.2 39.5
23:25 1021 30.15 850 25.1 17.5 63.4 41 4.2 39.6
23:30 1021 30.15 850 25.1 17.3 63.2 42 4.2 39.6
23:35 1021 30.15 850 25.1 17.2 63 44 5.1 41.2
23:40 1021 30.15 850 25.1 17 62.5 43 4.5 40.1
23:45 1021 30.15 850 25.1 16.9 62.4 42 3.9 39.1
23:50 1021 30.15 850 25.1 17.1 62.7 42 4 39.2
23:55 1021 30.15 850 25.1 17.1 62.8 42 4.3 39.8
24:00 1021 30.15 850 25.1 16.9 62.3 44 4.6 40.2